createdAt,value
2022-10-18T00:00:49.907Z,26.15
2022-10-18T00:03:38.002Z,25.57
2022-10-18T00:06:06.798Z,29.77
2022-10-18T00:08:34.143Z,26.92
2022-10-18T00:11:01.693Z,29.13
2022-10-18T00:13:29.143Z,27.13
2022-10-18T00:15:59.540Z,27.05
2022-10-18T00:18:27.763Z,28.55
2022-10-18T00:21:03.863Z,28.73
2022-10-18T00:23:32.344Z,29.03
2022-10-18T00:26:06.309Z,28.83
2022-10-18T00:28:34.905Z,28.83
2022-10-18T00:31:15.919Z,29.60
2022-10-18T00:33:45.394Z,30.73
2022-10-18T00:36:14.185Z,29.43
2022-10-18T00:38:42.047Z,29.87
2022-10-18T00:41:11.465Z,29.63
2022-10-18T00:43:56.120Z,29.20
2022-10-18T00:46:24.989Z,29.57
2022-10-18T00:51:32.617Z,28.43
2022-10-18T00:54:00.489Z,28.97
2022-10-18T00:56:28.577Z,29.67
2022-10-18T00:58:57.447Z,29.40
2022-10-18T01:01:28.293Z,32.00
2022-10-18T01:03:56.747Z,28.13
2022-10-18T01:06:25.074Z,29.00
2022-10-18T01:09:03.448Z,29.60
2022-10-18T01:11:55.773Z,29.63
2022-10-18T01:14:31.693Z,29.83
2022-10-18T01:17:04.341Z,27.87
2022-10-18T01:20:00.581Z,36.23
2022-10-18T01:22:42.296Z,30.60
2022-10-18T01:25:34.350Z,30.03
2022-10-18T01:28:10.539Z,30.93
2022-10-18T01:31:00.040Z,31.10
2022-10-18T01:33:34.283Z,29.70
2022-10-18T01:36:10.571Z,31.63
2022-10-18T01:38:39.825Z,31.77
2022-10-18T01:41:13.178Z,41.37
2022-10-18T01:43:46.144Z,32.23
2022-10-18T01:46:18.021Z,30.33
2022-10-18T01:48:45.766Z,30.90
2022-10-18T01:51:13.947Z,31.60
2022-10-18T01:53:41.124Z,31.37
2022-10-18T01:56:37.170Z,36.30
2022-10-18T01:59:27.173Z,34.17
2022-10-18T02:02:13.969Z,36.80
2022-10-18T02:04:50.410Z,32.60
2022-10-18T02:07:28.411Z,34.23
2022-10-18T02:10:11.125Z,33.97
2022-10-18T02:12:43.185Z,32.33
2022-10-18T02:15:14.474Z,29.63
2022-10-18T02:17:42.227Z,29.07
2022-10-18T02:20:10.440Z,26.07
2022-10-18T02:22:39.754Z,26.63
2022-10-18T02:25:12.406Z,25.67
2022-10-18T02:27:40.358Z,26.67
2022-10-18T02:30:08.378Z,26.00
2022-10-18T02:32:48.722Z,27.60
2022-10-18T02:35:28.341Z,30.17
2022-10-18T02:37:58.309Z,27.67
2022-10-18T02:40:26.560Z,27.10
2022-10-18T02:42:58.655Z,31.00
2022-10-18T02:45:27.158Z,31.90
2022-10-18T02:47:55.089Z,31.03
2022-10-18T02:50:22.749Z,29.93
2022-10-18T02:52:50.537Z,30.83
2022-10-18T02:55:18.179Z,31.10
2022-10-18T02:57:46.077Z,33.60
2022-10-18T03:00:14.184Z,36.03
2022-10-18T03:02:41.594Z,33.50
2022-10-18T03:05:08.862Z,31.57
2022-10-18T03:07:36.688Z,33.10
2022-10-18T03:10:04.383Z,31.53
2022-10-18T03:12:32.200Z,33.33
2022-10-18T03:14:59.785Z,32.50
2022-10-18T03:17:27.740Z,29.20
2022-10-18T03:19:55.447Z,32.53
2022-10-18T03:22:25.356Z,31.77
2022-10-18T03:24:54.032Z,30.47
2022-10-18T03:27:21.967Z,30.60
2022-10-18T03:29:49.586Z,26.60
2022-10-18T03:32:17.360Z,25.17
2022-10-18T03:34:45.018Z,26.23
2022-10-18T03:37:12.778Z,25.13
2022-10-18T03:39:39.915Z,24.73
2022-10-18T03:42:07.882Z,25.20
2022-10-18T03:44:35.415Z,24.47
2022-10-18T03:47:03.147Z,27.93
2022-10-18T03:49:30.913Z,28.33
2022-10-18T03:51:59.054Z,28.97
2022-10-18T03:54:26.626Z,27.00
2022-10-18T03:56:54.165Z,27.07
2022-10-18T03:59:22.877Z,28.93
2022-10-18T04:01:51.403Z,27.30
2022-10-18T04:04:18.669Z,27.60
2022-10-18T04:06:46.190Z,27.60
2022-10-18T04:09:13.482Z,27.60
2022-10-18T04:11:41.411Z,28.93
2022-10-18T04:14:08.658Z,33.50
2022-10-18T04:19:04.165Z,35.63
2022-10-18T04:21:31.885Z,34.20
2022-10-18T04:23:59.657Z,30.60
2022-10-18T04:26:27.501Z,30.93
2022-10-18T04:28:55.437Z,32.77
2022-10-18T04:31:23.580Z,41.60
2022-10-18T04:33:51.147Z,35.77
2022-10-18T04:36:18.988Z,33.43
2022-10-18T04:38:47.792Z,33.20
2022-10-18T04:41:15.647Z,32.90
2022-10-18T04:43:42.900Z,33.07
2022-10-18T04:46:10.445Z,32.87
2022-10-18T04:48:37.697Z,33.53
2022-10-18T04:51:05.217Z,33.73
2022-10-18T04:53:32.791Z,32.17
2022-10-18T04:56:00.280Z,34.10
2022-10-18T04:58:27.620Z,30.60
2022-10-18T05:00:57.313Z,34.10
2022-10-18T05:03:24.660Z,34.00
2022-10-18T05:06:07.007Z,32.83
2022-10-18T05:08:35.835Z,32.70
2022-10-18T05:11:04.408Z,34.83
2022-10-18T05:13:31.796Z,35.97
2022-10-18T05:16:00.378Z,32.27
2022-10-18T05:18:27.755Z,32.13
2022-10-18T05:20:55.244Z,35.30
2022-10-18T05:23:22.964Z,36.47
2022-10-18T05:25:50.492Z,33.63
2022-10-18T05:28:38.857Z,33.13
2022-10-18T05:31:08.198Z,30.63
2022-10-18T05:33:35.952Z,30.97
2022-10-18T05:36:04.206Z,31.53
2022-10-18T05:38:31.586Z,32.40
2022-10-18T05:41:03.615Z,31.40
2022-10-18T05:43:30.832Z,31.40
2022-10-18T05:45:58.417Z,30.27
2022-10-18T05:48:25.685Z,30.90
2022-10-18T05:50:53.350Z,29.60
2022-10-18T05:53:37.373Z,28.17
2022-10-18T05:56:07.283Z,29.83
2022-10-18T05:58:34.976Z,29.85
2022-10-18T06:01:03.897Z,33.43
2022-10-18T06:03:31.456Z,33.37
2022-10-18T06:06:07.634Z,32.13
2022-10-18T06:08:36.267Z,35.23
2022-10-18T06:11:20.442Z,42.58
2022-10-18T06:13:50.226Z,36.47
2022-10-18T06:16:20.667Z,35.47
2022-10-18T06:18:53.212Z,34.28
2022-10-18T06:21:21.611Z,32.38
2022-10-18T06:23:50.159Z,34.25
2022-10-18T06:26:18.118Z,29.42
2022-10-18T06:28:45.543Z,28.65
2022-10-18T06:31:13.870Z,29.15
2022-10-18T06:33:41.359Z,27.75
2022-10-18T06:36:13.471Z,30.30
2022-10-18T06:38:41.178Z,33.38
2022-10-18T06:41:09.135Z,34.47
2022-10-18T06:43:37.019Z,31.77
2022-10-18T06:46:07.677Z,31.90
2022-10-18T06:48:39.644Z,33.28
2022-10-18T06:51:08.378Z,32.83
2022-10-18T06:53:43.920Z,36.45
2022-10-18T06:56:16.663Z,34.75
2022-10-18T06:58:44.008Z,39.00
2022-10-18T07:01:14.019Z,43.47
2022-10-18T07:03:41.607Z,59.80
2022-10-18T07:06:11.464Z,33.97
2022-10-18T07:08:39.752Z,27.27
2022-10-18T07:11:08.082Z,26.75
2022-10-18T07:13:35.738Z,29.30
2022-10-18T07:16:06.103Z,27.58
2022-10-18T07:18:34.959Z,27.02
2022-10-18T07:21:07.117Z,29.27
2022-10-18T07:23:35.623Z,33.05
2022-10-18T07:26:27.292Z,33.03
2022-10-18T07:28:58.055Z,32.10
2022-10-18T07:31:26.087Z,34.00
2022-10-18T07:33:54.361Z,33.92
2022-10-18T07:36:22.361Z,32.28
2022-10-18T07:38:52.069Z,31.48
2022-10-18T07:41:19.550Z,29.92
2022-10-18T07:43:50.924Z,29.08
2022-10-18T07:46:20.004Z,31.85
2022-10-18T07:48:48.212Z,29.85
2022-10-18T07:51:16.101Z,31.38
2022-10-18T07:53:43.494Z,31.02
2022-10-18T07:56:16.643Z,30.95
2022-10-18T07:58:51.402Z,33.97
2022-10-18T08:01:20.687Z,36.60
2022-10-18T08:03:48.117Z,38.80
2022-10-18T08:06:18.635Z,37.70
2022-10-18T08:08:46.628Z,42.83
2022-10-18T08:11:17.960Z,40.28
2022-10-18T08:13:45.585Z,36.40
2022-10-18T08:16:16.374Z,42.67
2022-10-18T08:18:44.060Z,35.08
2022-10-18T08:21:14.223Z,35.25
2022-10-18T08:23:42.132Z,34.00
2022-10-18T08:26:15.893Z,36.15
2022-10-18T08:28:53.513Z,34.90
2022-10-18T08:31:21.854Z,35.47
2022-10-18T08:33:49.256Z,33.42
2022-10-18T08:36:17.614Z,35.78
2022-10-18T08:38:44.852Z,35.53
2022-10-18T08:41:27.630Z,33.47
2022-10-18T08:44:24.023Z,29.83
2022-10-18T08:46:56.393Z,29.58
2022-10-18T08:49:32.408Z,29.40
2022-10-18T08:52:00.097Z,29.98
2022-10-18T08:54:37.699Z,28.60
2022-10-18T08:57:12.559Z,30.73
2022-10-18T08:59:41.115Z,29.08
2022-10-18T09:02:55.641Z,28.20
2022-10-18T09:05:28.084Z,29.17
2022-10-18T09:08:24.122Z,29.92
2022-10-18T09:11:18.606Z,27.25
2022-10-18T09:14:15.131Z,25.58
2022-10-18T09:17:03.770Z,24.00
2022-10-18T09:19:46.791Z,24.45
2022-10-18T09:22:18.120Z,26.45
2022-10-18T09:24:51.344Z,23.98
2022-10-18T09:27:20.687Z,25.17
2022-10-18T09:30:05.599Z,23.00
2022-10-18T09:32:54.832Z,26.75
2022-10-18T09:35:27.409Z,28.27
2022-10-18T09:38:03.413Z,30.70
2022-10-18T09:40:36.437Z,29.63
2022-10-18T09:43:11.918Z,26.88
2022-10-18T09:45:43.062Z,24.50
2022-10-18T09:48:28.462Z,23.08
2022-10-18T09:51:21.899Z,29.65
2022-10-18T09:54:23.711Z,25.55
2022-10-18T09:57:25.422Z,28.05
2022-10-18T09:59:52.710Z,29.25
2022-10-18T10:02:23.210Z,31.25
2022-10-18T10:04:51.908Z,30.77
2022-10-18T10:07:24.308Z,30.52
2022-10-18T10:10:12.510Z,33.10
2022-10-18T10:12:41.120Z,34.75
2022-10-18T10:15:29.692Z,36.58
2022-10-18T10:18:01.754Z,36.22
2022-10-18T10:20:44.345Z,38.88
2022-10-18T10:23:21.742Z,39.95
2022-10-18T10:25:54.423Z,41.55
2022-10-18T10:28:28.937Z,45.28
2022-10-18T10:31:34.342Z,33.88
2022-10-18T10:34:14.241Z,38.08
2022-10-18T10:36:53.814Z,31.80
2022-10-18T10:39:24.094Z,29.08
2022-10-18T10:41:53.935Z,30.30
2022-10-18T10:44:33.920Z,26.23
2022-10-18T10:47:01.587Z,23.85
2022-10-18T10:49:45.524Z,24.30
2022-10-18T10:52:26.830Z,28.23
2022-10-18T10:57:47.458Z,33.35
2022-10-18T11:00:33.909Z,30.17
2022-10-18T11:03:28.647Z,30.40
2022-10-18T11:06:00.540Z,32.63
2022-10-18T11:08:32.954Z,29.15
2022-10-18T11:11:23.170Z,32.70
2022-10-18T11:14:13.542Z,30.67
2022-10-18T11:16:58.743Z,27.17
2022-10-18T11:19:47.280Z,26.08
2022-10-18T11:22:20.999Z,27.05
2022-10-18T11:24:48.367Z,31.35
2022-10-18T11:27:42.142Z,20.55
2022-10-18T11:30:48.884Z,14.82
2022-10-18T11:34:07.675Z,14.30
2022-10-18T11:36:56.346Z,16.83
2022-10-18T11:40:02.270Z,16.63
2022-10-18T11:42:54.739Z,13.32
2022-10-18T11:45:36.718Z,10.73
2022-10-18T11:48:10.499Z,11.20
2022-10-18T11:50:53.446Z,11.05
2022-10-18T11:53:25.597Z,12.15
2022-10-18T11:56:14.053Z,11.27
2022-10-18T11:58:59.989Z,10.93
2022-10-18T12:01:42.074Z,11.45
2022-10-18T12:04:30.493Z,15.27
2022-10-18T12:06:58.519Z,15.50
2022-10-18T12:09:31.084Z,14.70
2022-10-18T12:12:26.728Z,13.57
2022-10-18T12:15:02.600Z,13.10
2022-10-18T12:17:51.408Z,12.25
2022-10-18T12:20:41.906Z,13.13
2022-10-18T12:23:14.261Z,11.55
2022-10-18T12:25:46.251Z,11.65
2022-10-18T12:28:22.558Z,13.80
2022-10-18T12:31:06.364Z,13.38
2022-10-18T12:33:41.063Z,13.60
2022-10-18T12:36:11.377Z,14.57
2022-10-18T12:38:43.809Z,15.73
2022-10-18T12:41:20.772Z,17.13
2022-10-18T12:43:55.111Z,23.90
2022-10-18T12:46:22.594Z,24.02
2022-10-18T12:49:05.238Z,39.08
2022-10-18T12:51:32.636Z,42.63
2022-10-18T12:54:03.039Z,40.65
2022-10-18T12:56:33.135Z,38.25
2022-10-18T12:59:15.678Z,32.03
2022-10-18T13:01:52.114Z,29.77
2022-10-18T13:04:28.861Z,34.38
2022-10-18T13:07:05.204Z,40.78
2022-10-18T13:09:41.170Z,54.28
2022-10-18T13:12:11.353Z,41.33
2022-10-18T13:15:07.325Z,28.63
2022-10-18T13:17:59.832Z,26.00
2022-10-18T13:21:05.697Z,23.73
2022-10-18T13:23:39.727Z,25.10
2022-10-18T13:26:32.095Z,27.33
2022-10-18T13:29:19.003Z,27.02
2022-10-18T13:32:04.277Z,29.58
2022-10-18T13:34:35.435Z,27.60
2022-10-18T13:37:05.648Z,32.50
2022-10-18T13:39:33.846Z,33.80
2022-10-18T13:42:01.406Z,37.53
2022-10-18T13:44:39.919Z,39.92
2022-10-18T13:47:07.250Z,43.08
2022-10-18T13:49:44.657Z,48.97
2022-10-18T13:52:58.994Z,47.75
2022-10-18T13:55:38.208Z,50.50
2022-10-18T13:58:49.269Z,50.13
2022-10-18T14:01:29.645Z,48.17
2022-10-18T14:04:37.933Z,41.15
2022-10-18T14:07:06.564Z,36.45
2022-10-18T14:09:56.306Z,30.38
2022-10-18T14:12:44.295Z,27.70
2022-10-18T14:15:25.480Z,25.60
2022-10-18T14:18:18.965Z,27.27
2022-10-18T14:21:12.292Z,38.42
2022-10-18T14:23:44.840Z,38.65
2022-10-18T14:26:20.719Z,39.38
2022-10-18T14:29:04.169Z,37.45
2022-10-18T14:31:32.471Z,38.63
2022-10-18T14:34:01.037Z,32.70
2022-10-18T14:36:40.446Z,32.00
2022-10-18T14:39:22.753Z,25.33
2022-10-18T14:41:55.936Z,23.83
2022-10-18T14:44:29.247Z,31.73
2022-10-18T14:47:04.022Z,20.75
2022-10-18T14:49:31.529Z,23.03
2022-10-18T14:52:00.496Z,27.37
2022-10-18T14:54:37.728Z,19.73
2022-10-18T14:57:07.159Z,19.10
2022-10-18T14:59:54.070Z,20.48
2022-10-18T15:02:24.186Z,21.40
2022-10-18T15:04:57.270Z,21.20
2022-10-18T15:07:26.107Z,20.53
2022-10-18T15:09:55.304Z,24.20
2022-10-18T15:12:23.339Z,23.15
2022-10-18T15:14:51.298Z,23.43
2022-10-18T15:17:27.872Z,18.33
2022-10-18T15:19:59.381Z,16.67
2022-10-18T15:22:43.749Z,16.43
2022-10-18T15:25:29.445Z,16.13
2022-10-18T15:28:00.677Z,16.83
2022-10-18T15:30:39.541Z,16.23
2022-10-18T15:33:11.786Z,17.47
2022-10-18T15:35:39.672Z,15.70
2022-10-18T15:38:16.844Z,15.63
2022-10-18T15:40:44.564Z,14.57
2022-10-18T15:43:24.339Z,12.88
2022-10-18T15:46:00.147Z,12.73
2022-10-18T15:48:38.647Z,12.43
2022-10-18T15:51:37.588Z,14.80
2022-10-18T15:54:05.190Z,14.03
2022-10-18T15:56:36.712Z,15.20
2022-10-18T15:59:28.837Z,16.27
2022-10-18T16:01:56.434Z,15.17
2022-10-18T16:04:25.907Z,17.63
2022-10-18T16:06:55.617Z,17.50
2022-10-18T16:09:26.103Z,19.33
2022-10-18T16:11:57.325Z,17.03
2022-10-18T16:14:26.676Z,19.50
2022-10-18T16:16:56.383Z,19.83
2022-10-18T16:19:24.161Z,21.53
2022-10-18T16:21:53.733Z,21.17
2022-10-18T16:24:23.300Z,21.27
2022-10-18T16:26:51.528Z,20.70
2022-10-18T16:29:24.589Z,20.33
2022-10-18T16:31:53.839Z,19.60
2022-10-18T16:34:22.198Z,19.97
2022-10-18T16:36:49.991Z,20.83
2022-10-18T16:39:19.831Z,21.70
2022-10-18T16:41:48.485Z,21.63
2022-10-18T16:44:17.770Z,22.47
2022-10-18T16:46:46.473Z,24.17
2022-10-18T16:49:24.306Z,24.77
2022-10-18T16:51:54.870Z,23.83
2022-10-18T16:54:23.619Z,27.93
2022-10-18T16:56:54.124Z,27.00
2022-10-18T16:59:29.250Z,23.53
2022-10-18T17:01:58.030Z,22.73
2022-10-18T17:04:26.205Z,23.17
2022-10-18T17:06:57.454Z,21.13
2022-10-18T17:09:25.361Z,20.40
2022-10-18T17:11:53.265Z,21.13
2022-10-18T17:14:21.060Z,19.93
2022-10-18T17:16:52.304Z,20.37
2022-10-18T17:19:23.899Z,22.40
2022-10-18T17:21:51.275Z,23.23
2022-10-18T17:24:18.845Z,22.17
2022-10-18T17:26:46.152Z,22.53
2022-10-18T17:29:14.261Z,21.93
2022-10-18T17:31:41.602Z,22.47
2022-10-18T17:34:09.631Z,22.80
2022-10-18T17:36:37.272Z,39.53
2022-10-18T17:39:05.181Z,25.80
2022-10-18T17:41:32.513Z,50.97
2022-10-18T17:44:02.243Z,58.67
2022-10-18T17:46:29.856Z,21.83
2022-10-18T17:48:58.228Z,23.10
2022-10-18T17:51:25.862Z,21.87
2022-10-18T17:53:54.716Z,22.57
2022-10-18T17:56:22.634Z,21.97
2022-10-18T17:58:53.120Z,22.87
2022-10-18T18:01:23.362Z,22.33
2022-10-18T18:03:56.214Z,22.63
2022-10-18T18:06:34.194Z,22.57
2022-10-18T18:09:07.484Z,22.23
2022-10-18T18:11:36.454Z,22.33
2022-10-18T18:14:09.160Z,22.40
2022-10-18T18:16:38.445Z,22.83
2022-10-18T18:19:09.660Z,24.00
2022-10-18T18:21:38.555Z,23.63
2022-10-18T18:24:07.258Z,24.90
2022-10-18T18:26:36.311Z,26.50
2022-10-18T18:29:04.484Z,25.03
2022-10-18T18:31:37.750Z,23.27
2022-10-18T18:34:09.648Z,23.53
2022-10-18T18:36:37.045Z,24.23
2022-10-18T18:39:05.841Z,24.33
2022-10-18T18:41:33.443Z,26.73
2022-10-18T18:44:06.350Z,26.53
2022-10-18T18:46:39.127Z,25.07
2022-10-18T18:49:08.370Z,25.20
2022-10-18T18:51:38.268Z,24.90
2022-10-18T18:54:07.710Z,26.10
2022-10-18T18:56:35.237Z,33.03
2022-10-18T18:59:03.335Z,39.43
2022-10-18T19:01:36.107Z,33.23
2022-10-18T19:04:05.844Z,29.70
2022-10-18T19:06:44.399Z,31.27
2022-10-18T19:09:25.644Z,30.90
2022-10-18T19:11:54.758Z,34.97
2022-10-18T19:14:25.049Z,36.17
2022-10-18T19:16:59.159Z,38.40
2022-10-18T19:19:28.482Z,40.20
2022-10-18T19:22:00.969Z,41.60
2022-10-18T19:24:30.415Z,39.67
2022-10-18T19:27:00.635Z,42.13
2022-10-18T19:29:28.731Z,41.93
2022-10-18T19:31:59.884Z,35.93
2022-10-18T19:34:29.178Z,31.47
2022-10-18T19:36:56.675Z,32.87
2022-10-18T19:39:32.754Z,32.80
2022-10-18T19:42:03.505Z,33.00
2022-10-18T19:44:32.994Z,33.73
2022-10-18T19:47:00.909Z,32.07
2022-10-18T19:49:28.950Z,35.93
2022-10-18T19:51:57.468Z,40.20
2022-10-18T19:54:26.818Z,40.40
2022-10-18T19:56:54.402Z,43.27
2022-10-18T19:59:22.963Z,49.87
2022-10-18T20:01:50.626Z,46.90
2022-10-18T20:04:18.333Z,41.47
2022-10-18T20:06:45.887Z,38.67
2022-10-18T20:09:17.698Z,32.93
2022-10-18T20:11:47.882Z,30.57
2022-10-18T20:14:15.534Z,28.77
2022-10-18T20:16:42.770Z,28.27
2022-10-18T20:19:10.749Z,33.10
2022-10-18T20:21:39.480Z,37.27
2022-10-18T20:24:07.843Z,44.93
2022-10-18T20:26:35.978Z,40.97
2022-10-18T20:29:04.677Z,42.37
2022-10-18T20:31:35.679Z,37.10
2022-10-18T20:34:06.456Z,31.60
2022-10-18T20:36:34.539Z,27.80
2022-10-18T20:39:02.482Z,26.20
2022-10-18T20:41:32.620Z,23.20
2022-10-18T20:44:02.590Z,23.60
2022-10-18T20:46:31.860Z,23.67
2022-10-18T20:48:59.508Z,23.33
2022-10-18T20:51:27.184Z,20.77
2022-10-18T20:53:54.964Z,19.67
2022-10-18T20:56:25.374Z,19.13
2022-10-18T20:58:55.901Z,18.83
2022-10-18T21:01:26.118Z,21.10
2022-10-18T21:03:55.711Z,17.60
2022-10-18T21:06:31.960Z,16.43
2022-10-18T21:09:05.145Z,15.47
2022-10-18T21:11:36.777Z,15.57
2022-10-18T21:14:05.633Z,17.87
2022-10-18T21:16:35.250Z,17.00
2022-10-18T21:19:08.012Z,16.37
2022-10-18T21:21:35.959Z,15.53
2022-10-18T21:24:07.027Z,13.77
2022-10-18T21:26:36.513Z,13.30
2022-10-18T21:29:05.242Z,12.37
2022-10-18T21:31:35.052Z,13.30
2022-10-18T21:34:17.462Z,14.13
2022-10-18T21:36:46.624Z,13.80
2022-10-18T21:39:21.704Z,13.93
2022-10-18T21:41:49.442Z,14.07
2022-10-18T21:44:17.081Z,13.50
2022-10-18T21:46:45.198Z,13.33
2022-10-18T21:49:13.755Z,12.83
2022-10-18T21:51:41.785Z,14.70
2022-10-18T21:54:14.400Z,13.60
2022-10-18T21:56:41.653Z,13.33
2022-10-18T21:59:11.717Z,13.63
2022-10-18T22:01:39.810Z,13.73
2022-10-18T22:04:17.019Z,13.67
2022-10-18T22:06:44.179Z,14.97
2022-10-18T22:09:14.521Z,13.90
2022-10-18T22:11:45.379Z,12.07
2022-10-18T22:14:12.635Z,13.33
2022-10-18T22:16:39.912Z,13.47
2022-10-18T22:19:07.599Z,13.00
2022-10-18T22:21:34.965Z,12.77
2022-10-18T22:24:05.647Z,14.07
2022-10-18T22:26:36.036Z,14.40
2022-10-18T22:29:10.018Z,14.00
2022-10-18T22:31:40.564Z,14.27
2022-10-18T22:34:11.475Z,13.27
2022-10-18T22:36:38.665Z,13.00
2022-10-18T22:39:07.115Z,13.57
2022-10-18T22:41:35.324Z,13.17
2022-10-18T22:44:03.830Z,13.13
2022-10-18T22:46:32.915Z,12.70
2022-10-18T22:49:00.436Z,13.27
2022-10-18T22:51:27.542Z,12.13
2022-10-18T22:53:54.864Z,11.70
2022-10-18T22:56:23.360Z,12.33
2022-10-18T22:58:50.816Z,13.37
2022-10-18T23:01:21.198Z,10.57
2022-10-18T23:03:57.020Z,11.83
2022-10-18T23:06:35.737Z,11.47
2022-10-18T23:09:06.296Z,11.43
2022-10-18T23:11:34.949Z,10.10
2022-10-18T23:14:04.030Z,10.63
2022-10-18T23:16:31.592Z,10.77
2022-10-18T23:18:59.675Z,10.07
2022-10-18T23:21:28.271Z,11.33
2022-10-18T23:23:56.322Z,10.17
2022-10-18T23:26:25.911Z,9.87
2022-10-18T23:28:53.867Z,10.53
2022-10-18T23:31:27.369Z,11.53
2022-10-18T23:33:58.903Z,10.73
2022-10-18T23:36:26.804Z,9.23
2022-10-18T23:38:55.229Z,9.70
2022-10-18T23:41:23.262Z,10.23
2022-10-18T23:43:50.657Z,9.70
2022-10-18T23:46:18.740Z,9.50
2022-10-18T23:48:46.870Z,9.90
2022-10-18T23:51:14.690Z,9.70
2022-10-18T23:53:42.309Z,9.87
2022-10-18T23:56:12.660Z,8.90
2022-10-18T23:58:40.754Z,8.33
